sensor_id;sensor_type;location;lat;lon;timestamp;temperature;humidity
1225;DHT22;602;48.000;7.840;2022-10-31T00:00:08;17.10;99.90
1225;DHT22;602;48.000;7.840;2022-10-31T00:02:35;17.10;99.90
1225;DHT22;602;48.000;7.840;2022-10-31T00:05:02;17.00;99.90
1225;DHT22;602;48.000;7.840;2022-10-31T00:07:29;17.00;99.90
1225;DHT22;602;48.000;7.840;2022-10-31T00:09:56;17.00;99.90
1225;DHT22;602;48.000;7.840;2022-10-31T00:12:23;17.00;99.90
1225;DHT22;602;48.000;7.840;2022-10-31T00:14:49;17.00;99.90
1225;DHT22;602;48.000;7.840;2022-10-31T00:17:18;16.90;99.90
1225;DHT22;602;48.000;7.840;2022-10-31T00:19:44;16.90;99.90
1225;DHT22;602;48.000;7.840;2022-10-31T00:22:11;16.90;99.90
1225;DHT22;602;48.000;7.840;2022-10-31T00:24:38;16.80;99.90
1225;DHT22;602;48.000;7.840;2022-10-31T00:27:05;16.80;99.90
1225;DHT22;602;48.000;7.840;2022-10-31T00:29:32;16.80;99.90
1225;DHT22;602;48.000;7.840;2022-10-31T00:31:58;16.90;99.90
1225;DHT22;602;48.000;7.840;2022-10-31T00:34:27;16.90;99.90
1225;DHT22;602;48.000;7.840;2022-10-31T00:36:53;16.90;99.90
1225;DHT22;602;48.000;7.840;2022-10-31T00:39:20;16.90;99.90
1225;DHT22;602;48.000;7.840;2022-10-31T00:41:47;17.00;99.90
1225;DHT22;602;48.000;7.840;2022-10-31T00:44:14;16.90;99.90
1225;DHT22;602;48.000;7.840;2022-10-31T00:46:41;16.90;99.90
1225;DHT22;602;48.000;7.840;2022-10-31T00:49:08;16.90;99.90
1225;DHT22;602;48.000;7.840;2022-10-31T00:51:36;16.90;99.90
1225;DHT22;602;48.000;7.840;2022-10-31T00:54:03;16.80;99.90
1225;DHT22;602;48.000;7.840;2022-10-31T00:56:29;16.80;99.90
1225;DHT22;602;48.000;7.840;2022-10-31T00:58:56;16.80;99.90
1225;DHT22;602;48.000;7.840;2022-10-31T01:01:23;16.80;99.90
1225;DHT22;602;48.000;7.840;2022-10-31T01:03:50;16.70;99.90
1225;DHT22;602;48.000;7.840;2022-10-31T01:06:17;16.60;99.90
1225;DHT22;602;48.000;7.840;2022-10-31T01:08:47;16.60;99.90
1225;DHT22;602;48.000;7.840;2022-10-31T01:11:16;16.70;99.90
1225;DHT22;602;48.000;7.840;2022-10-31T01:13:44;16.80;99.90
1225;DHT22;602;48.000;7.840;2022-10-31T01:16:12;16.70;99.90
1225;DHT22;602;48.000;7.840;2022-10-31T01:18:39;16.70;99.90
1225;DHT22;602;48.000;7.840;2022-10-31T01:21:08;16.60;99.90
1225;DHT22;602;48.000;7.840;2022-10-31T01:23:35;16.60;99.90
1225;DHT22;602;48.000;7.840;2022-10-31T01:26:06;16.60;99.90
1225;DHT22;602;48.000;7.840;2022-10-31T01:28:34;16.50;99.90
1225;DHT22;602;48.000;7.840;2022-10-31T01:31:02;16.40;99.90
1225;DHT22;602;48.000;7.840;2022-10-31T01:33:28;16.40;99.90
1225;DHT22;602;48.000;7.840;2022-10-31T01:35:55;16.40;99.90
1225;DHT22;602;48.000;7.840;2022-10-31T01:38:22;16.40;99.90
1225;DHT22;602;48.000;7.840;2022-10-31T01:40:49;16.30;99.90
1225;DHT22;602;48.000;7.840;2022-10-31T01:43:18;16.30;99.90
1225;DHT22;602;48.000;7.840;2022-10-31T01:45:51;16.10;99.90
1225;DHT22;602;48.000;7.840;2022-10-31T01:48:22;16.10;99.90
1225;DHT22;602;48.000;7.840;2022-10-31T01:50:52;16.10;99.90
1225;DHT22;602;48.000;7.840;2022-10-31T01:53:20;16.00;99.90
1225;DHT22;602;48.000;7.840;2022-10-31T01:55:48;16.00;99.90
1225;DHT22;602;48.000;7.840;2022-10-31T01:58:19;15.90;99.90
1225;DHT22;602;48.000;7.840;2022-10-31T02:00:50;16.00;99.90
1225;DHT22;602;48.000;7.840;2022-10-31T02:03:18;16.10;99.90
1225;DHT22;602;48.000;7.840;2022-10-31T02:05:47;16.10;99.90
1225;DHT22;602;48.000;7.840;2022-10-31T02:08:17;15.90;99.90
1225;DHT22;602;48.000;7.840;2022-10-31T02:10:45;15.90;99.90
1225;DHT22;602;48.000;7.840;2022-10-31T02:13:12;15.90;99.90
1225;DHT22;602;48.000;7.840;2022-10-31T02:15:42;16.00;99.90
1225;DHT22;602;48.000;7.840;2022-10-31T02:18:09;15.90;99.90
1225;DHT22;602;48.000;7.840;2022-10-31T02:20:42;16.00;99.90
1225;DHT22;602;48.000;7.840;2022-10-31T02:23:55;16.00;99.90
1225;DHT22;602;48.000;7.840;2022-10-31T02:26:49;16.00;99.90
1225;DHT22;602;48.000;7.840;2022-10-31T02:30:03;15.90;99.90
1225;DHT22;602;48.000;7.840;2022-10-31T02:32:43;16.00;99.90
1225;DHT22;602;48.000;7.840;2022-10-31T02:35:22;16.00;99.90
1225;DHT22;602;48.000;7.840;2022-10-31T02:37:56;16.00;99.90
1225;DHT22;602;48.000;7.840;2022-10-31T02:40:26;16.00;99.90
1225;DHT22;602;48.000;7.840;2022-10-31T02:43:02;16.00;99.90
1225;DHT22;602;48.000;7.840;2022-10-31T02:45:33;16.00;99.90
1225;DHT22;602;48.000;7.840;2022-10-31T02:48:09;16.00;99.90
1225;DHT22;602;48.000;7.840;2022-10-31T02:50:40;16.00;99.90
1225;DHT22;602;48.000;7.840;2022-10-31T02:53:08;15.90;99.90
1225;DHT22;602;48.000;7.840;2022-10-31T02:55:51;15.90;99.90
1225;DHT22;602;48.000;7.840;2022-10-31T02:58:22;15.90;99.90
1225;DHT22;602;48.000;7.840;2022-10-31T03:01:02;15.90;99.90
1225;DHT22;602;48.000;7.840;2022-10-31T03:03:36;15.90;99.90
1225;DHT22;602;48.000;7.840;2022-10-31T03:06:08;15.90;99.90
1225;DHT22;602;48.000;7.840;2022-10-31T03:08:38;15.90;99.90
1225;DHT22;602;48.000;7.840;2022-10-31T03:11:09;15.80;99.90
1225;DHT22;602;48.000;7.840;2022-10-31T03:13:41;15.80;99.90
1225;DHT22;602;48.000;7.840;2022-10-31T03:16:11;15.60;99.90
1225;DHT22;602;48.000;7.840;2022-10-31T03:18:43;15.60;99.90
1225;DHT22;602;48.000;7.840;2022-10-31T03:21:14;15.60;99.90
1225;DHT22;602;48.000;7.840;2022-10-31T03:23:44;15.60;99.90
1225;DHT22;602;48.000;7.840;2022-10-31T03:26:13;15.60;99.90
1225;DHT22;602;48.000;7.840;2022-10-31T03:28:44;15.50;99.90
1225;DHT22;602;48.000;7.840;2022-10-31T03:31:16;15.60;99.90
1225;DHT22;602;48.000;7.840;2022-10-31T03:33:46;15.60;99.90
1225;DHT22;602;48.000;7.840;2022-10-31T03:36:15;15.60;99.90
1225;DHT22;602;48.000;7.840;2022-10-31T03:38:45;15.50;99.90
1225;DHT22;602;48.000;7.840;2022-10-31T03:41:17;15.60;99.90
1225;DHT22;602;48.000;7.840;2022-10-31T03:43:51;15.50;99.90
1225;DHT22;602;48.000;7.840;2022-10-31T03:46:19;15.50;99.90
1225;DHT22;602;48.000;7.840;2022-10-31T03:48:48;15.50;99.90
1225;DHT22;602;48.000;7.840;2022-10-31T03:51:21;15.60;99.90
1225;DHT22;602;48.000;7.840;2022-10-31T03:53:55;15.50;99.90
1225;DHT22;602;48.000;7.840;2022-10-31T03:56:29;15.50;99.90
1225;DHT22;602;48.000;7.840;2022-10-31T03:59:00;15.50;99.90
1225;DHT22;602;48.000;7.840;2022-10-31T04:01:30;15.50;99.90
1225;DHT22;602;48.000;7.840;2022-10-31T04:03:59;15.50;99.90
1225;DHT22;602;48.000;7.840;2022-10-31T04:06:27;15.60;99.90
1225;DHT22;602;48.000;7.840;2022-10-31T04:09:00;15.50;99.90
1225;DHT22;602;48.000;7.840;2022-10-31T04:11:30;15.40;99.90
1225;DHT22;602;48.000;7.840;2022-10-31T04:13:59;15.40;99.90
1225;DHT22;602;48.000;7.840;2022-10-31T04:16:27;15.20;99.90
1225;DHT22;602;48.000;7.840;2022-10-31T04:18:54;15.20;99.90
1225;DHT22;602;48.000;7.840;2022-10-31T04:21:28;15.20;99.90
1225;DHT22;602;48.000;7.840;2022-10-31T04:23:55;15.30;99.90
1225;DHT22;602;48.000;7.840;2022-10-31T04:26:22;15.20;99.90
1225;DHT22;602;48.000;7.840;2022-10-31T04:28:49;15.20;99.90
1225;DHT22;602;48.000;7.840;2022-10-31T04:31:16;15.20;99.90
1225;DHT22;602;48.000;7.840;2022-10-31T04:33:43;15.20;99.90
1225;DHT22;602;48.000;7.840;2022-10-31T04:36:10;15.20;99.90
1225;DHT22;602;48.000;7.840;2022-10-31T04:38:38;15.20;99.90
1225;DHT22;602;48.000;7.840;2022-10-31T04:41:05;15.20;99.90
1225;DHT22;602;48.000;7.840;2022-10-31T04:43:32;15.20;99.90
1225;DHT22;602;48.000;7.840;2022-10-31T04:45:58;15.20;99.90
1225;DHT22;602;48.000;7.840;2022-10-31T04:48:25;15.10;99.90
1225;DHT22;602;48.000;7.840;2022-10-31T04:50:52;15.10;99.90
1225;DHT22;602;48.000;7.840;2022-10-31T04:53:19;15.20;99.90
1225;DHT22;602;48.000;7.840;2022-10-31T04:55:47;15.20;99.90
1225;DHT22;602;48.000;7.840;2022-10-31T04:58:14;15.10;99.90
1225;DHT22;602;48.000;7.840;2022-10-31T05:00:41;15.00;99.90
1225;DHT22;602;48.000;7.840;2022-10-31T05:03:08;15.00;99.90
1225;DHT22;602;48.000;7.840;2022-10-31T05:05:35;15.00;99.90
1225;DHT22;602;48.000;7.840;2022-10-31T05:08:02;15.00;99.90
1225;DHT22;602;48.000;7.840;2022-10-31T05:10:30;15.00;99.90
1225;DHT22;602;48.000;7.840;2022-10-31T05:13:00;15.00;99.90
1225;DHT22;602;48.000;7.840;2022-10-31T05:15:28;15.00;99.90
1225;DHT22;602;48.000;7.840;2022-10-31T05:17:55;15.00;99.90
1225;DHT22;602;48.000;7.840;2022-10-31T05:20:24;15.00;99.90
1225;DHT22;602;48.000;7.840;2022-10-31T05:22:52;14.90;99.90
1225;DHT22;602;48.000;7.840;2022-10-31T05:25:21;14.80;99.90
1225;DHT22;602;48.000;7.840;2022-10-31T05:27:50;14.90;99.90
1225;DHT22;602;48.000;7.840;2022-10-31T05:30:20;14.80;99.90
1225;DHT22;602;48.000;7.840;2022-10-31T05:32:49;14.90;99.90
1225;DHT22;602;48.000;7.840;2022-10-31T05:35:18;14.90;99.90
1225;DHT22;602;48.000;7.840;2022-10-31T05:37:45;14.90;99.90
1225;DHT22;602;48.000;7.840;2022-10-31T05:40:14;14.80;99.90
1225;DHT22;602;48.000;7.840;2022-10-31T05:42:42;14.90;99.90
1225;DHT22;602;48.000;7.840;2022-10-31T05:45:09;14.90;99.90
1225;DHT22;602;48.000;7.840;2022-10-31T05:47:39;14.90;99.90
1225;DHT22;602;48.000;7.840;2022-10-31T05:50:07;14.90;99.90
1225;DHT22;602;48.000;7.840;2022-10-31T05:52:34;14.90;99.90
1225;DHT22;602;48.000;7.840;2022-10-31T05:55:01;14.90;99.90
1225;DHT22;602;48.000;7.840;2022-10-31T05:57:28;14.90;99.90
1225;DHT22;602;48.000;7.840;2022-10-31T05:59:55;14.90;99.90
1225;DHT22;602;48.000;7.840;2022-10-31T06:02:22;14.90;99.90
1225;DHT22;602;48.000;7.840;2022-10-31T06:04:50;14.90;99.90
1225;DHT22;602;48.000;7.840;2022-10-31T06:07:17;14.80;99.90
1225;DHT22;602;48.000;7.840;2022-10-31T06:09:44;14.70;99.90
1225;DHT22;602;48.000;7.840;2022-10-31T06:12:11;14.70;99.90
1225;DHT22;602;48.000;7.840;2022-10-31T06:14:37;14.70;99.90
1225;DHT22;602;48.000;7.840;2022-10-31T06:17:05;14.70;99.90
1225;DHT22;602;48.000;7.840;2022-10-31T06:19:31;14.80;99.90
1225;DHT22;602;48.000;7.840;2022-10-31T06:22:00;14.80;99.90
1225;DHT22;602;48.000;7.840;2022-10-31T06:24:26;14.80;99.90
1225;DHT22;602;48.000;7.840;2022-10-31T06:26:53;14.80;99.90
1225;DHT22;602;48.000;7.840;2022-10-31T06:29:20;14.80;99.90
1225;DHT22;602;48.000;7.840;2022-10-31T06:31:47;14.80;99.90
1225;DHT22;602;48.000;7.840;2022-10-31T06:34:14;14.80;99.90
1225;DHT22;602;48.000;7.840;2022-10-31T06:36:40;14.80;99.90
1225;DHT22;602;48.000;7.840;2022-10-31T06:39:09;14.80;99.90
1225;DHT22;602;48.000;7.840;2022-10-31T06:41:36;14.80;99.90
1225;DHT22;602;48.000;7.840;2022-10-31T06:44:05;14.80;99.90
1225;DHT22;602;48.000;7.840;2022-10-31T06:46:32;14.90;99.90
1225;DHT22;602;48.000;7.840;2022-10-31T06:48:59;14.90;99.90
1225;DHT22;602;48.000;7.840;2022-10-31T06:51:26;14.90;99.90
1225;DHT22;602;48.000;7.840;2022-10-31T06:53:53;14.90;99.90
1225;DHT22;602;48.000;7.840;2022-10-31T06:56:21;15.00;99.90
1225;DHT22;602;48.000;7.840;2022-10-31T06:58:48;14.90;99.90
1225;DHT22;602;48.000;7.840;2022-10-31T07:01:14;14.90;99.90
1225;DHT22;602;48.000;7.840;2022-10-31T07:03:41;14.90;99.90
1225;DHT22;602;48.000;7.840;2022-10-31T07:06:08;14.90;99.90
1225;DHT22;602;48.000;7.840;2022-10-31T07:08:35;15.00;99.90
1225;DHT22;602;48.000;7.840;2022-10-31T07:11:02;15.00;99.90
1225;DHT22;602;48.000;7.840;2022-10-31T07:13:30;15.00;99.90
1225;DHT22;602;48.000;7.840;2022-10-31T07:16:00;15.00;99.90
1225;DHT22;602;48.000;7.840;2022-10-31T07:18:28;15.00;99.90
1225;DHT22;602;48.000;7.840;2022-10-31T07:20:55;15.10;99.90
1225;DHT22;602;48.000;7.840;2022-10-31T07:23:22;15.10;99.90
1225;DHT22;602;48.000;7.840;2022-10-31T07:25:54;15.10;99.90
1225;DHT22;602;48.000;7.840;2022-10-31T07:28:21;15.10;99.90
1225;DHT22;602;48.000;7.840;2022-10-31T07:30:51;15.10;99.90
1225;DHT22;602;48.000;7.840;2022-10-31T07:33:18;15.10;99.90
1225;DHT22;602;48.000;7.840;2022-10-31T07:35:45;15.20;99.90
1225;DHT22;602;48.000;7.840;2022-10-31T07:38:13;15.40;99.90
1225;DHT22;602;48.000;7.840;2022-10-31T07:40:41;15.40;99.90
1225;DHT22;602;48.000;7.840;2022-10-31T07:43:08;15.50;99.90
1225;DHT22;602;48.000;7.840;2022-10-31T07:45:37;15.60;99.90
1225;DHT22;602;48.000;7.840;2022-10-31T07:48:05;15.60;99.90
1225;DHT22;602;48.000;7.840;2022-10-31T07:50:33;15.60;99.90
1225;DHT22;602;48.000;7.840;2022-10-31T07:53:01;15.60;99.90
1225;DHT22;602;48.000;7.840;2022-10-31T07:55:28;15.60;99.90
1225;DHT22;602;48.000;7.840;2022-10-31T07:57:57;15.70;99.90
1225;DHT22;602;48.000;7.840;2022-10-31T08:00:24;15.80;99.90
1225;DHT22;602;48.000;7.840;2022-10-31T08:02:57;16.00;99.90
1225;DHT22;602;48.000;7.840;2022-10-31T08:05:25;16.20;99.90
1225;DHT22;602;48.000;7.840;2022-10-31T08:07:52;16.20;99.90
1225;DHT22;602;48.000;7.840;2022-10-31T08:10:19;16.40;99.90
1225;DHT22;602;48.000;7.840;2022-10-31T08:12:46;16.40;99.90
1225;DHT22;602;48.000;7.840;2022-10-31T08:15:13;16.50;99.90
1225;DHT22;602;48.000;7.840;2022-10-31T08:17:39;16.60;99.90
1225;DHT22;602;48.000;7.840;2022-10-31T08:20:07;16.70;99.90
1225;DHT22;602;48.000;7.840;2022-10-31T08:22:35;16.70;99.90
1225;DHT22;602;48.000;7.840;2022-10-31T08:25:03;16.80;99.90
1225;DHT22;602;48.000;7.840;2022-10-31T08:27:29;16.80;99.90
1225;DHT22;602;48.000;7.840;2022-10-31T08:29:56;16.90;99.90
1225;DHT22;602;48.000;7.840;2022-10-31T08:32:23;17.00;99.90
1225;DHT22;602;48.000;7.840;2022-10-31T08:34:50;17.10;99.90
1225;DHT22;602;48.000;7.840;2022-10-31T08:37:17;17.20;99.90
1225;DHT22;602;48.000;7.840;2022-10-31T08:39:46;17.30;99.90
1225;DHT22;602;48.000;7.840;2022-10-31T08:42:13;17.20;99.90
1225;DHT22;602;48.000;7.840;2022-10-31T08:44:40;17.10;99.90
1225;DHT22;602;48.000;7.840;2022-10-31T08:47:07;17.00;99.90
1225;DHT22;602;48.000;7.840;2022-10-31T08:49:34;17.10;99.90
1225;DHT22;602;48.000;7.840;2022-10-31T08:52:01;17.20;99.90
1225;DHT22;602;48.000;7.840;2022-10-31T08:54:27;17.30;99.90
1225;DHT22;602;48.000;7.840;2022-10-31T08:57:00;17.30;99.90
1225;DHT22;602;48.000;7.840;2022-10-31T08:59:27;17.50;99.90
1225;DHT22;602;48.000;7.840;2022-10-31T09:01:53;17.60;99.90
1225;DHT22;602;48.000;7.840;2022-10-31T09:04:20;17.60;99.90
1225;DHT22;602;48.000;7.840;2022-10-31T09:06:47;17.70;99.90
1225;DHT22;602;48.000;7.840;2022-10-31T09:09:14;17.70;99.90
1225;DHT22;602;48.000;7.840;2022-10-31T09:11:41;17.80;99.90
1225;DHT22;602;48.000;7.840;2022-10-31T09:14:12;17.70;99.90
1225;DHT22;602;48.000;7.840;2022-10-31T09:16:39;17.70;99.90
1225;DHT22;602;48.000;7.840;2022-10-31T09:19:05;17.80;99.90
1225;DHT22;602;48.000;7.840;2022-10-31T09:21:32;18.00;99.90
1225;DHT22;602;48.000;7.840;2022-10-31T09:23:59;18.10;99.90
1225;DHT22;602;48.000;7.840;2022-10-31T09:26:26;18.20;99.90
1225;DHT22;602;48.000;7.840;2022-10-31T09:28:53;18.20;99.90
1225;DHT22;602;48.000;7.840;2022-10-31T09:31:21;18.30;99.90
1225;DHT22;602;48.000;7.840;2022-10-31T09:33:48;18.50;99.90
1225;DHT22;602;48.000;7.840;2022-10-31T09:36:14;18.60;99.90
1225;DHT22;602;48.000;7.840;2022-10-31T09:38:41;18.60;99.90
1225;DHT22;602;48.000;7.840;2022-10-31T09:41:16;18.70;99.90
1225;DHT22;602;48.000;7.840;2022-10-31T09:43:49;18.80;99.90
1225;DHT22;602;48.000;7.840;2022-10-31T09:46:24;18.90;99.90
1225;DHT22;602;48.000;7.840;2022-10-31T09:49:04;18.80;99.90
1225;DHT22;602;48.000;7.840;2022-10-31T09:51:37;19.00;99.90
1225;DHT22;602;48.000;7.840;2022-10-31T09:54:09;19.10;99.90
1225;DHT22;602;48.000;7.840;2022-10-31T09:56:38;19.30;99.90
1225;DHT22;602;48.000;7.840;2022-10-31T09:59:10;19.40;99.90
1225;DHT22;602;48.000;7.840;2022-10-31T10:01:48;19.40;99.90
1225;DHT22;602;48.000;7.840;2022-10-31T10:04:33;19.50;99.90
1225;DHT22;602;48.000;7.840;2022-10-31T10:07:05;19.50;99.90
1225;DHT22;602;48.000;7.840;2022-10-31T10:09:34;19.50;99.90
1225;DHT22;602;48.000;7.840;2022-10-31T10:12:09;19.70;99.90
1225;DHT22;602;48.000;7.840;2022-10-31T10:14:53;19.70;99.90
1225;DHT22;602;48.000;7.840;2022-10-31T10:17:32;19.80;99.90
1225;DHT22;602;48.000;7.840;2022-10-31T10:20:14;19.90;99.90
1225;DHT22;602;48.000;7.840;2022-10-31T10:22:49;19.80;99.90
1225;DHT22;602;48.000;7.840;2022-10-31T10:25:21;19.80;99.90
1225;DHT22;602;48.000;7.840;2022-10-31T10:27:56;19.70;99.90
1225;DHT22;602;48.000;7.840;2022-10-31T10:30:30;19.90;99.90
1225;DHT22;602;48.000;7.840;2022-10-31T10:33:05;19.80;99.90
1225;DHT22;602;48.000;7.840;2022-10-31T10:35:38;19.90;99.90
1225;DHT22;602;48.000;7.840;2022-10-31T10:38:13;19.80;99.90
1225;DHT22;602;48.000;7.840;2022-10-31T10:40:42;19.90;99.90
1225;DHT22;602;48.000;7.840;2022-10-31T10:43:22;20.00;99.90
1225;DHT22;602;48.000;7.840;2022-10-31T10:45:52;19.90;99.90
1225;DHT22;602;48.000;7.840;2022-10-31T10:48:49;19.90;99.90
1225;DHT22;602;48.000;7.840;2022-10-31T10:51:22;19.90;99.90
1225;DHT22;602;48.000;7.840;2022-10-31T10:54:00;20.00;99.90
1225;DHT22;602;48.000;7.840;2022-10-31T10:56:44;19.90;99.90
1225;DHT22;602;48.000;7.840;2022-10-31T10:59:15;19.90;99.90
1225;DHT22;602;48.000;7.840;2022-10-31T11:01:43;20.00;99.90
1225;DHT22;602;48.000;7.840;2022-10-31T11:04:25;20.10;99.90
1225;DHT22;602;48.000;7.840;2022-10-31T11:07:08;20.10;99.90
1225;DHT22;602;48.000;7.840;2022-10-31T11:09:40;20.00;99.90
1225;DHT22;602;48.000;7.840;2022-10-31T11:12:32;20.10;99.90
1225;DHT22;602;48.000;7.840;2022-10-31T11:15:16;20.00;99.90
1225;DHT22;602;48.000;7.840;2022-10-31T11:17:54;20.00;99.90
1225;DHT22;602;48.000;7.840;2022-10-31T11:20:32;20.10;99.90
1225;DHT22;602;48.000;7.840;2022-10-31T11:23:17;19.80;99.90
1225;DHT22;602;48.000;7.840;2022-10-31T11:25:52;19.90;99.90
1225;DHT22;602;48.000;7.840;2022-10-31T11:28:20;19.90;99.90
1225;DHT22;602;48.000;7.840;2022-10-31T11:30:50;19.70;99.90
1225;DHT22;602;48.000;7.840;2022-10-31T11:33:24;19.60;99.90
1225;DHT22;602;48.000;7.840;2022-10-31T11:35:54;19.70;99.90
1225;DHT22;602;48.000;7.840;2022-10-31T11:38:26;19.90;99.90
1225;DHT22;602;48.000;7.840;2022-10-31T11:40:59;19.80;99.90
1225;DHT22;602;48.000;7.840;2022-10-31T11:43:27;20.10;99.90
1225;DHT22;602;48.000;7.840;2022-10-31T11:45:54;20.10;99.90
1225;DHT22;602;48.000;7.840;2022-10-31T11:48:23;20.20;99.90
1225;DHT22;602;48.000;7.840;2022-10-31T11:50:54;20.50;99.90
1225;DHT22;602;48.000;7.840;2022-10-31T11:53:26;20.40;99.90
1225;DHT22;602;48.000;7.840;2022-10-31T11:56:05;20.60;99.90
1225;DHT22;602;48.000;7.840;2022-10-31T11:58:33;20.80;99.90
1225;DHT22;602;48.000;7.840;2022-10-31T12:00:59;21.00;99.90
1225;DHT22;602;48.000;7.840;2022-10-31T12:03:33;21.10;99.90
1225;DHT22;602;48.000;7.840;2022-10-31T12:06:06;21.20;99.90
1225;DHT22;602;48.000;7.840;2022-10-31T12:08:35;21.40;99.90
1225;DHT22;602;48.000;7.840;2022-10-31T12:11:09;21.70;99.90
1225;DHT22;602;48.000;7.840;2022-10-31T12:13:41;22.00;99.90
1225;DHT22;602;48.000;7.840;2022-10-31T12:16:18;22.40;99.90
1225;DHT22;602;48.000;7.840;2022-10-31T12:18:57;22.70;99.90
1225;DHT22;602;48.000;7.840;2022-10-31T12:21:49;22.90;99.90
1225;DHT22;602;48.000;7.840;2022-10-31T12:24:27;23.20;99.90
1225;DHT22;602;48.000;7.840;2022-10-31T12:27:02;23.40;99.90
1225;DHT22;602;48.000;7.840;2022-10-31T12:29:43;23.60;99.90
1225;DHT22;602;48.000;7.840;2022-10-31T12:32:23;23.80;99.90
1225;DHT22;602;48.000;7.840;2022-10-31T12:35:21;24.20;99.90
1225;DHT22;602;48.000;7.840;2022-10-31T12:38:03;24.20;99.90
1225;DHT22;602;48.000;7.840;2022-10-31T12:40:43;24.30;99.90
1225;DHT22;602;48.000;7.840;2022-10-31T12:43:26;24.40;99.90
1225;DHT22;602;48.000;7.840;2022-10-31T12:45:57;24.40;99.90
1225;DHT22;602;48.000;7.840;2022-10-31T12:48:46;24.40;99.90
1225;DHT22;602;48.000;7.840;2022-10-31T12:51:21;24.50;99.90
1225;DHT22;602;48.000;7.840;2022-10-31T12:54:05;24.50;99.90
1225;DHT22;602;48.000;7.840;2022-10-31T12:56:43;24.80;99.90
1225;DHT22;602;48.000;7.840;2022-10-31T12:59:20;24.70;99.90
1225;DHT22;602;48.000;7.840;2022-10-31T13:01:51;24.40;99.90
1225;DHT22;602;48.000;7.840;2022-10-31T13:04:38;24.40;99.90
1225;DHT22;602;48.000;7.840;2022-10-31T13:07:12;24.50;99.90
1225;DHT22;602;48.000;7.840;2022-10-31T13:09:58;24.70;99.90
1225;DHT22;602;48.000;7.840;2022-10-31T13:12:28;24.70;99.90
1225;DHT22;602;48.000;7.840;2022-10-31T13:14:58;24.60;99.90
1225;DHT22;602;48.000;7.840;2022-10-31T13:17:30;24.50;99.90
1225;DHT22;602;48.000;7.840;2022-10-31T13:20:13;24.50;99.90
1225;DHT22;602;48.000;7.840;2022-10-31T13:22:43;24.50;99.90
1225;DHT22;602;48.000;7.840;2022-10-31T13:25:15;24.30;99.90
1225;DHT22;602;48.000;7.840;2022-10-31T13:27:47;24.20;99.90
1225;DHT22;602;48.000;7.840;2022-10-31T13:30:17;24.00;99.90
1225;DHT22;602;48.000;7.840;2022-10-31T13:32:48;24.00;99.90
1225;DHT22;602;48.000;7.840;2022-10-31T13:35:25;24.00;99.90
1225;DHT22;602;48.000;7.840;2022-10-31T13:38:03;24.00;99.90
1225;DHT22;602;48.000;7.840;2022-10-31T13:40:44;24.10;99.90
1225;DHT22;602;48.000;7.840;2022-10-31T13:43:20;24.10;99.90
1225;DHT22;602;48.000;7.840;2022-10-31T13:45:50;24.10;99.90
1225;DHT22;602;48.000;7.840;2022-10-31T13:48:32;23.80;99.90
1225;DHT22;602;48.000;7.840;2022-10-31T13:51:01;23.70;99.90
1225;DHT22;602;48.000;7.840;2022-10-31T13:53:37;23.80;99.90
1225;DHT22;602;48.000;7.840;2022-10-31T13:56:15;23.80;99.90
1225;DHT22;602;48.000;7.840;2022-10-31T13:58:56;23.90;99.90
1225;DHT22;602;48.000;7.840;2022-10-31T14:01:24;23.90;99.90
1225;DHT22;602;48.000;7.840;2022-10-31T14:03:58;23.60;99.90
1225;DHT22;602;48.000;7.840;2022-10-31T14:06:36;23.30;99.90
1225;DHT22;602;48.000;7.840;2022-10-31T14:09:04;23.20;99.90
1225;DHT22;602;48.000;7.840;2022-10-31T14:11:32;23.20;99.90
1225;DHT22;602;48.000;7.840;2022-10-31T14:14:00;23.20;99.90
1225;DHT22;602;48.000;7.840;2022-10-31T14:16:29;23.20;99.90
1225;DHT22;602;48.000;7.840;2022-10-31T14:18:59;23.30;99.90
1225;DHT22;602;48.000;7.840;2022-10-31T14:21:28;23.20;99.90
1225;DHT22;602;48.000;7.840;2022-10-31T14:23:56;23.10;99.90
1225;DHT22;602;48.000;7.840;2022-10-31T14:26:35;23.20;99.90
1225;DHT22;602;48.000;7.840;2022-10-31T14:29:25;23.30;99.90
1225;DHT22;602;48.000;7.840;2022-10-31T14:31:55;23.00;99.90
1225;DHT22;602;48.000;7.840;2022-10-31T14:34:26;23.00;99.90
1225;DHT22;602;48.000;7.840;2022-10-31T14:37:05;23.00;99.90
1225;DHT22;602;48.000;7.840;2022-10-31T14:39:40;23.00;99.90
1225;DHT22;602;48.000;7.840;2022-10-31T14:42:25;23.10;99.90
1225;DHT22;602;48.000;7.840;2022-10-31T14:45:09;23.10;99.90
1225;DHT22;602;48.000;7.840;2022-10-31T14:47:45;23.00;99.90
1225;DHT22;602;48.000;7.840;2022-10-31T14:50:27;23.00;99.90
1225;DHT22;602;48.000;7.840;2022-10-31T14:53:02;23.00;99.90
1225;DHT22;602;48.000;7.840;2022-10-31T14:55:31;22.80;99.90
1225;DHT22;602;48.000;7.840;2022-10-31T14:58:03;22.80;99.90
1225;DHT22;602;48.000;7.840;2022-10-31T15:00:50;22.80;99.90
1225;DHT22;602;48.000;7.840;2022-10-31T15:03:28;22.70;99.90
1225;DHT22;602;48.000;7.840;2022-10-31T15:06:01;22.70;99.90
1225;DHT22;602;48.000;7.840;2022-10-31T15:08:33;22.60;99.90
1225;DHT22;602;48.000;7.840;2022-10-31T15:11:03;22.50;99.90
1225;DHT22;602;48.000;7.840;2022-10-31T15:13:31;22.40;99.90
1225;DHT22;602;48.000;7.840;2022-10-31T15:15:58;22.40;99.90
1225;DHT22;602;48.000;7.840;2022-10-31T15:18:26;22.50;99.90
1225;DHT22;602;48.000;7.840;2022-10-31T15:20:55;22.50;99.90
1225;DHT22;602;48.000;7.840;2022-10-31T15:23:25;22.50;99.90
1225;DHT22;602;48.000;7.840;2022-10-31T15:25:58;22.40;99.90
1225;DHT22;602;48.000;7.840;2022-10-31T15:28:26;22.50;99.90
1225;DHT22;602;48.000;7.840;2022-10-31T15:30:56;22.40;99.90
1225;DHT22;602;48.000;7.840;2022-10-31T15:33:24;22.30;99.90
1225;DHT22;602;48.000;7.840;2022-10-31T15:35:57;22.10;99.90
1225;DHT22;602;48.000;7.840;2022-10-31T15:38:24;22.10;99.90
1225;DHT22;602;48.000;7.840;2022-10-31T15:40:54;22.00;99.90
1225;DHT22;602;48.000;7.840;2022-10-31T15:43:21;22.10;99.90
1225;DHT22;602;48.000;7.840;2022-10-31T15:45:48;22.10;99.90
1225;DHT22;602;48.000;7.840;2022-10-31T15:48:18;22.10;99.90
1225;DHT22;602;48.000;7.840;2022-10-31T15:50:47;22.00;99.90
1225;DHT22;602;48.000;7.840;2022-10-31T15:53:17;21.90;99.90
1225;DHT22;602;48.000;7.840;2022-10-31T15:55:50;21.80;99.90
1225;DHT22;602;48.000;7.840;2022-10-31T15:58:18;21.80;99.90
1225;DHT22;602;48.000;7.840;2022-10-31T16:00:56;21.70;99.90
1225;DHT22;602;48.000;7.840;2022-10-31T16:03:26;21.60;99.90
1225;DHT22;602;48.000;7.840;2022-10-31T16:05:55;21.40;99.90
1225;DHT22;602;48.000;7.840;2022-10-31T16:08:31;21.40;99.90
1225;DHT22;602;48.000;7.840;2022-10-31T16:11:00;21.30;99.90
1225;DHT22;602;48.000;7.840;2022-10-31T16:13:31;21.20;99.90
1225;DHT22;602;48.000;7.840;2022-10-31T16:16:00;21.20;99.90
1225;DHT22;602;48.000;7.840;2022-10-31T16:18:30;21.10;99.90
1225;DHT22;602;48.000;7.840;2022-10-31T16:21:03;21.00;99.90
1225;DHT22;602;48.000;7.840;2022-10-31T16:23:30;20.80;99.90
1225;DHT22;602;48.000;7.840;2022-10-31T16:25:57;20.80;99.90
1225;DHT22;602;48.000;7.840;2022-10-31T16:28:26;20.80;99.90
1225;DHT22;602;48.000;7.840;2022-10-31T16:30:54;20.70;99.90
1225;DHT22;602;48.000;7.840;2022-10-31T16:33:26;20.50;99.90
1225;DHT22;602;48.000;7.840;2022-10-31T16:35:55;20.30;99.90
1225;DHT22;602;48.000;7.840;2022-10-31T16:38:22;20.20;99.90
1225;DHT22;602;48.000;7.840;2022-10-31T16:40:50;20.20;99.90